createdAt,value
2019-03-20T00:09:53.293Z,6.94
2019-03-20T00:24:58.339Z,7.09
2019-03-20T00:40:01.190Z,7.14
2019-03-20T00:55:05.773Z,7.09
2019-03-20T01:10:14.378Z,7.04
2019-03-20T01:25:18.819Z,6.79
2019-03-20T01:40:22.319Z,6.55
2019-03-20T01:55:26.209Z,6.52
2019-03-20T02:10:28.874Z,6.26
2019-03-20T02:25:32.800Z,6.20
2019-03-20T02:40:35.577Z,6.07
2019-03-20T02:55:39.473Z,5.95
2019-03-20T03:10:42.028Z,5.70
2019-03-20T03:25:44.648Z,5.56
2019-03-20T03:40:47.228Z,5.32
2019-03-20T03:55:49.796Z,5.17
2019-03-20T04:10:53.442Z,4.95
2019-03-20T04:25:57.055Z,4.89
2019-03-20T04:40:59.611Z,4.78
2019-03-20T04:56:02.163Z,5.80
2019-03-20T05:11:05.510Z,7.43
2019-03-20T05:26:08.070Z,8.89
2019-03-20T05:41:11.887Z,9.97
2019-03-20T05:56:15.257Z,11.61
2019-03-20T06:11:17.843Z,13.60
2019-03-20T06:26:20.516Z,15.43
2019-03-20T06:41:24.563Z,15.66
2019-03-20T06:56:27.126Z,17.13
2019-03-20T07:11:31.485Z,18.74
2019-03-20T07:26:34.037Z,21.08
2019-03-20T07:41:36.824Z,21.53
2019-03-20T07:56:40.176Z,21.92
2019-03-20T08:11:42.759Z,22.32
2019-03-20T08:26:45.435Z,23.31
2019-03-20T08:41:47.997Z,23.19
2019-03-20T08:56:51.770Z,20.94
2019-03-20T09:11:54.461Z,21.47
2019-03-20T09:26:57.047Z,19.38
2019-03-20T09:42:03.503Z,17.68
2019-03-20T09:57:06.062Z,18.27
2019-03-20T10:12:08.633Z,19.45
2019-03-20T10:27:11.200Z,17.59
2019-03-20T10:42:14.041Z,19.17
2019-03-20T10:57:16.618Z,19.08
2019-03-20T11:12:19.405Z,17.55
2019-03-20T11:27:22.148Z,18.15
2019-03-20T11:42:24.717Z,17.45
2019-03-20T11:57:28.252Z,17.93
2019-03-20T12:12:30.815Z,17.71
2019-03-20T12:27:33.372Z,18.20
2019-03-20T12:42:36.045Z,19.05
2019-03-20T12:57:38.611Z,16.52
2019-03-20T13:12:42.073Z,16.93
2019-03-20T13:27:47.815Z,15.68
2019-03-20T13:42:50.389Z,15.01
2019-03-20T13:57:52.974Z,14.89
2019-03-20T14:12:56.320Z,14.78
2019-03-20T14:27:59.697Z,14.58
2019-03-20T14:43:02.318Z,13.98
2019-03-20T14:58:05.078Z,13.68
2019-03-20T15:13:09.041Z,13.43
2019-03-20T15:28:12.091Z,13.07
2019-03-20T15:43:16.791Z,12.34
2019-03-20T15:58:19.378Z,11.73
2019-03-20T16:13:21.941Z,11.43
2019-03-20T16:28:25.760Z,10.97
2019-03-20T16:43:29.633Z,10.45
2019-03-20T16:58:33.575Z,10.09
2019-03-20T17:13:36.353Z,9.75
2019-03-20T17:28:39.190Z,9.63
2019-03-20T17:43:41.771Z,9.13
2019-03-20T17:58:46.001Z,8.70
2019-03-20T18:13:49.810Z,8.38
2019-03-20T18:28:52.420Z,8.01
2019-03-20T18:43:56.120Z,8.08
2019-03-20T18:58:59.265Z,8.17
2019-03-20T19:14:02.146Z,8.23
2019-03-20T19:29:04.714Z,8.16
2019-03-20T19:44:07.873Z,8.17
2019-03-20T19:59:10.506Z,8.53
2019-03-20T20:14:13.838Z,8.91
2019-03-20T20:29:16.404Z,9.23
2019-03-20T20:44:20.620Z,9.23
2019-03-20T20:59:23.205Z,9.38
2019-03-20T21:14:25.758Z,9.45
2019-03-20T21:29:36.368Z,9.39
2019-03-20T21:44:48.356Z,9.39
2019-03-20T22:00:10.876Z,9.33
2019-03-20T22:15:24.609Z,9.24
2019-03-20T22:30:27.175Z,9.24
2019-03-20T23:01:14.829Z,9.16
2019-03-20T23:16:20.377Z,9.11
2019-03-20T23:31:23.458Z,9.03
2019-03-20T23:46:27.049Z,9.06
